City of London, United Kingdom
Current Conditions -  °F | °C
As of 1:50 AM on Saturday 22 Nov 2014 (Local Time) from EGLC Reporting Station
Haze Haze  
Wind Chill: 52°   Ceiling: 800
Heat Index: 52°   Visibility: 3mi
Dew Point: 50°   Wind: 2mph
Humidity: 94%   Direction: NA
Pressure: 29.88"   Gusts: NA
Location:  51.51°N, 0.09°W
Report Text: EGLC 220150Z AUTO VRB02KT 5000 BR FEW007/// BKN008/// 11/10 Q1012
Loading
Personal Weather Stations






























Interactive Weather Map New forecast layout! Learn more

10-Day Weather Forecast

Advertisements
Track Severe Weather on mobile